Brevoort Island, Canada
Current Conditions -  °F | °C
As of 9:00 PM on Wednesday 22 Oct 2014 (Local Time) from CYFB Reporting Station
Overcast Overcast  
Wind Chill: 25°   Ceiling: 2300
Heat Index: 32°   Visibility: 15mi
Dew Point: 27°   Wind: 8mph
Humidity: 80%   Direction: 330°NNW
Pressure: 29.68"   Gusts: NA
Location:  63.5°N, 64.33°W
Report Text: CYFB 230000Z 33007KT 15SM OVC023 M00/M03 A2968 RMK SC8 SLP052
Loading
Personal Weather Stations






























Interactive Weather Map
Tropical Storm Tracking
New forecast layout! Learn more

10-Day Weather Forecast

Advertisements
Track Severe Weather on mobile